Time;durP1;ratioP1;P1;durP2;ratioP2;P2;SDS_P1;SDS_P2;PMS_P1;PMS_P2;Temp;Humidity;BMP_temperature;BMP_pressure;BME280_temperature;BME280_humidity;BME280_pressure;Samples;Min_cycle;Max_cycle;Signal;HPM_P1;HPM_P2
2022/08/14 17:57:23;;;;;;;;;;;25.10;77.60;;;;;;5163992;27;19919;-96
2022/08/14 17:59:49;;;;;;;;;;;25.00;78.90;;;;;;5132202;27;19947;-95
2022/08/14 18:02:21;;;;;;;;;;;25.00;79.50;;;;;;5126707;28;19960;-95
2022/08/14 18:04:47;;;;;;;;;;;25.10;79.30;;;;;;5128386;27;19951;-96
2022/08/14 18:07:14;;;;;;;;;;;25.20;78.90;;;;;;5130956;27;19911;-89
2022/08/14 18:09:44;;;;;;;;;;;25.20;78.30;;;;;;5132015;27;19908;-89
2022/08/14 18:12:10;;;;;;;;;;;25.30;77.80;;;;;;5129377;28;20264;-90
2022/08/14 18:14:38;;;;;;;;;;;25.30;77.60;;;;;;5131925;27;20371;-90
2022/08/14 18:17:04;;;;;;;;;;;25.30;77.10;;;;;;5130660;27;19916;-89
2022/08/14 18:19:31;;;;;;;;;;;25.40;76.80;;;;;;5131764;27;20364;-90
2022/08/14 18:21:57;;;;;;;;;;;25.40;76.10;;;;;;5131580;27;19912;-96
2022/08/14 18:24:23;;;;;;;;;;;25.40;75.70;;;;;;5127047;27;19915;-95
2022/08/14 18:26:52;;;;;;;;;;;25.40;75.50;;;;;;5132132;27;20428;-94
2022/08/14 18:29:20;;;;;;;;;;;25.40;75.30;;;;;;5128583;27;19919;-96
2022/08/14 18:31:46;;;;;;;;;;;25.40;75.50;;;;;;5128635;27;19912;-95
2022/08/14 18:34:13;;;;;;;;;;;25.40;75.70;;;;;;5132040;27;19918;-96
2022/08/14 18:36:40;;;;;;;;;;;25.40;75.70;;;;;;5130940;27;20368;-96
2022/08/14 18:39:24;;;;;;;;;;;25.40;75.70;;;;;;5130906;27;20435;-95
2022/08/14 18:41:51;;;;;;;;;;;25.40;75.80;;;;;;5129361;28;20262;-95
2022/08/14 18:44:35;;;;;;;;;;;25.40;75.70;;;;;;5131725;28;20012;-94
2022/08/14 18:47:07;;;;;;;;;;;25.40;75.70;;;;;;5130888;27;19907;-96
2022/08/14 18:49:59;;;;;;;;;;;25.30;75.50;;;;;;5131604;28;20253;-95
2022/08/14 18:52:37;;;;;;;;;;;25.30;75.30;;;;;;5125691;27;19912;-96
2022/08/14 18:55:15;;;;;;;;;;;25.20;75.30;;;;;;5128674;27;19964;-95
2022/08/14 18:57:53;;;;;;;;;;;25.20;75.40;;;;;;5122453;27;19919;-95
2022/08/14 19:00:28;;;;;;;;;;;25.10;75.70;;;;;;5115490;27;20336;-96
2022/08/14 19:03:00;;;;;;;;;;;25.10;76.00;;;;;;5143491;27;19991;-95
2022/08/14 19:05:41;;;;;;;;;;;25.10;76.50;;;;;;5129882;27;20416;-95
2022/08/14 19:08:16;;;;;;;;;;;25.00;76.80;;;;;;5115853;27;19912;-96
2022/08/14 19:10:42;;;;;;;;;;;25.00;77.20;;;;;;5136799;27;19907;-90
2022/08/14 19:13:09;;;;;;;;;;;24.90;77.70;;;;;;5115103;27;19959;-89
2022/08/14 19:15:41;;;;;;;;;;;24.90;78.00;;;;;;5112438;27;19955;-89
2022/08/14 19:18:29;;;;;;;;;;;24.80;78.30;;;;;;5117040;27;19916;-96
2022/08/14 19:20:55;;;;;;;;;;;24.80;78.70;;;;;;5116871;27;19916;-95
2022/08/14 19:23:22;;;;;;;;;;;24.80;79.10;;;;;;5118471;28;19908;-96
2022/08/14 19:25:51;;;;;;;;;;;24.70;79.50;;;;;;5116220;27;20002;-95
2022/08/14 19:28:21;;;;;;;;;;;24.70;79.80;;;;;;5106391;27;19916;-96
2022/08/14 19:30:47;;;;;;;;;;;24.70;80.40;;;;;;5119799;27;19915;-96
2022/08/14 19:33:33;;;;;;;;;;;24.70;80.90;;;;;;5103747;28;19924;-96
2022/08/14 19:36:09;;;;;;;;;;;24.60;81.30;;;;;;5116586;28;20044;-96
2022/08/14 19:38:45;;;;;;;;;;;24.50;81.70;;;;;;5117194;28;20428;-96
2022/08/14 19:41:14;;;;;;;;;;;24.50;82.20;;;;;;5116581;28;19908;-95
2022/08/14 19:43:41;;;;;;;;;;;24.40;82.80;;;;;;5114636;28;20360;-94
2022/08/14 19:46:07;;;;;;;;;;;24.40;83.20;;;;;;5110799;28;19919;-95
2022/08/14 19:48:33;;;;;;;;;;;24.40;83.90;;;;;;5111078;28;19912;-96
2022/08/14 19:51:00;;;;;;;;;;;24.30;84.10;;;;;;5118855;28;19914;-95
2022/08/14 19:53:25;;;;;;;;;;;24.30;84.60;;;;;;5116436;28;19907;-96
2022/08/14 19:56:00;;;;;;;;;;;24.30;84.80;;;;;;5117642;28;20006;-96
2022/08/14 19:58:40;;;;;;;;;;;24.20;85.20;;;;;;5118260;28;19935;-96
2022/08/14 20:01:06;;;;;;;;;;;24.20;85.70;;;;;;5122097;27;19908;-95
2022/08/14 20:03:39;;;;;;;;;;;24.10;86.00;;;;;;5118952;28;19912;-95
2022/08/14 20:06:05;;;;;;;;;;;24.10;86.50;;;;;;5117997;28;19914;-96
2022/08/14 20:08:31;;;;;;;;;;;24.10;86.90;;;;;;5115604;28;20010;-96
2022/08/14 20:10:57;;;;;;;;;;;24.10;87.30;;;;;;5115184;28;19908;-96
2022/08/14 20:13:28;;;;;;;;;;;24.00;87.40;;;;;;5118028;28;19964;-93
2022/08/14 20:15:53;;;;;;;;;;;24.00;87.70;;;;;;5116239;27;19919;-94
